sensor_id;sensor_type;location;lat;lon;timestamp;P1;durP1;ratioP1;P2;durP2;ratioP2
11139;SDS011;5624;49.388;11.350;2023-02-18T00:01:16;4.20;;;2.80;;
11139;SDS011;5624;49.388;11.350;2023-02-18T00:03:43;3.80;;;3.20;;
11139;SDS011;5624;49.388;11.350;2023-02-18T00:06:14;5.53;;;3.60;;
11139;SDS011;5624;49.388;11.350;2023-02-18T00:08:42;3.80;;;3.37;;
11139;SDS011;5624;49.388;11.350;2023-02-18T00:11:09;3.70;;;3.27;;
11139;SDS011;5624;49.388;11.350;2023-02-18T00:13:35;4.70;;;3.90;;
11139;SDS011;5624;49.388;11.350;2023-02-18T00:16:04;4.37;;;3.50;;
11139;SDS011;5624;49.388;11.350;2023-02-18T00:18:31;5.70;;;3.37;;
11139;SDS011;5624;49.388;11.350;2023-02-18T00:20:57;4.37;;;3.20;;
11139;SDS011;5624;49.388;11.350;2023-02-18T00:23:22;4.20;;;3.50;;
11139;SDS011;5624;49.388;11.350;2023-02-18T00:25:48;4.37;;;3.37;;
11139;SDS011;5624;49.388;11.350;2023-02-18T00:28:14;4.00;;;3.30;;
11139;SDS011;5624;49.388;11.350;2023-02-18T00:30:40;4.50;;;3.87;;
11139;SDS011;5624;49.388;11.350;2023-02-18T00:33:07;5.17;;;3.80;;
11139;SDS011;5624;49.388;11.350;2023-02-18T00:35:33;5.63;;;3.83;;
11139;SDS011;5624;49.388;11.350;2023-02-18T00:37:59;4.60;;;4.10;;
11139;SDS011;5624;49.388;11.350;2023-02-18T00:40:24;4.30;;;3.90;;
11139;SDS011;5624;49.388;11.350;2023-02-18T00:42:50;7.23;;;4.60;;
11139;SDS011;5624;49.388;11.350;2023-02-18T00:45:15;6.53;;;4.50;;
11139;SDS011;5624;49.388;11.350;2023-02-18T00:47:41;5.40;;;4.27;;
11139;SDS011;5624;49.388;11.350;2023-02-18T00:50:08;5.13;;;4.30;;
11139;SDS011;5624;49.388;11.350;2023-02-18T00:52:34;5.93;;;4.80;;
11139;SDS011;5624;49.388;11.350;2023-02-18T00:54:59;5.40;;;4.73;;
11139;SDS011;5624;49.388;11.350;2023-02-18T00:57:25;4.83;;;4.33;;
11139;SDS011;5624;49.388;11.350;2023-02-18T00:59:51;5.70;;;4.17;;
11139;SDS011;5624;49.388;11.350;2023-02-18T01:02:17;5.47;;;4.00;;
11139;SDS011;5624;49.388;11.350;2023-02-18T01:04:42;4.77;;;4.07;;
11139;SDS011;5624;49.388;11.350;2023-02-18T01:07:08;4.87;;;4.27;;
11139;SDS011;5624;49.388;11.350;2023-02-18T01:09:34;4.67;;;4.00;;
11139;SDS011;5624;49.388;11.350;2023-02-18T01:12:00;5.43;;;4.53;;
11139;SDS011;5624;49.388;11.350;2023-02-18T01:14:26;5.07;;;4.10;;
11139;SDS011;5624;49.388;11.350;2023-02-18T01:16:52;4.90;;;4.27;;
11139;SDS011;5624;49.388;11.350;2023-02-18T01:19:17;5.17;;;4.27;;
11139;SDS011;5624;49.388;11.350;2023-02-18T01:21:43;5.40;;;4.53;;
11139;SDS011;5624;49.388;11.350;2023-02-18T01:24:09;5.83;;;4.47;;
11139;SDS011;5624;49.388;11.350;2023-02-18T01:26:34;5.07;;;4.13;;
11139;SDS011;5624;49.388;11.350;2023-02-18T01:29:00;5.50;;;4.20;;
11139;SDS011;5624;49.388;11.350;2023-02-18T01:31:25;5.13;;;4.63;;
11139;SDS011;5624;49.388;11.350;2023-02-18T01:33:51;5.37;;;4.60;;
11139;SDS011;5624;49.388;11.350;2023-02-18T01:36:17;6.27;;;4.00;;
11139;SDS011;5624;49.388;11.350;2023-02-18T01:38:42;5.33;;;4.63;;
11139;SDS011;5624;49.388;11.350;2023-02-18T01:41:08;5.60;;;4.57;;
11139;SDS011;5624;49.388;11.350;2023-02-18T01:43:35;5.33;;;4.47;;
11139;SDS011;5624;49.388;11.350;2023-02-18T01:48:33;6.23;;;5.20;;
11139;SDS011;5624;49.388;11.350;2023-02-18T01:51:14;5.43;;;4.50;;
11139;SDS011;5624;49.388;11.350;2023-02-18T01:56:56;6.13;;;4.80;;
11139;SDS011;5624;49.388;11.350;2023-02-18T01:59:28;6.37;;;4.70;;
11139;SDS011;5624;49.388;11.350;2023-02-18T02:02:01;4.87;;;4.17;;
11139;SDS011;5624;49.388;11.350;2023-02-18T02:04:27;7.57;;;4.53;;
11139;SDS011;5624;49.388;11.350;2023-02-18T02:06:52;8.50;;;5.33;;
11139;SDS011;5624;49.388;11.350;2023-02-18T02:09:18;5.87;;;4.90;;
11139;SDS011;5624;49.388;11.350;2023-02-18T02:20:28;4.87;;;4.17;;
11139;SDS011;5624;49.388;11.350;2023-02-18T02:40:22;6.07;;;4.50;;
11139;SDS011;5624;49.388;11.350;2023-02-18T02:46:05;4.23;;;3.83;;
11139;SDS011;5624;49.388;11.350;2023-02-18T02:48:50;5.50;;;4.30;;
11139;SDS011;5624;49.388;11.350;2023-02-18T02:51:32;5.47;;;4.33;;
11139;SDS011;5624;49.388;11.350;2023-02-18T02:54:24;5.50;;;4.20;;
11139;SDS011;5624;49.388;11.350;2023-02-18T02:57:39;5.10;;;4.40;;
11139;SDS011;5624;49.388;11.350;2023-02-18T02:59:58;5.77;;;4.70;;
11139;SDS011;5624;49.388;11.350;2023-02-18T03:16:26;5.93;;;4.90;;
11139;SDS011;5624;49.388;11.350;2023-02-18T03:21:42;6.33;;;5.10;;
11139;SDS011;5624;49.388;11.350;2023-02-18T03:26:47;6.63;;;4.97;;
11139;SDS011;5624;49.388;11.350;2023-02-18T03:29:17;7.13;;;5.27;;
11139;SDS011;5624;49.388;11.350;2023-02-18T03:31:45;6.77;;;5.07;;
11139;SDS011;5624;49.388;11.350;2023-02-18T03:34:15;6.57;;;5.10;;
11139;SDS011;5624;49.388;11.350;2023-02-18T03:36:44;6.70;;;5.10;;
11139;SDS011;5624;49.388;11.350;2023-02-18T03:39:13;6.30;;;5.03;;
11139;SDS011;5624;49.388;11.350;2023-02-18T03:41:40;6.53;;;5.07;;
11139;SDS011;5624;49.388;11.350;2023-02-18T03:44:07;6.00;;;5.40;;
11139;SDS011;5624;49.388;11.350;2023-02-18T03:46:34;6.23;;;5.20;;
11139;SDS011;5624;49.388;11.350;2023-02-18T03:49:01;7.60;;;5.30;;
11139;SDS011;5624;49.388;11.350;2023-02-18T03:51:27;7.10;;;5.20;;
11139;SDS011;5624;49.388;11.350;2023-02-18T03:53:52;6.10;;;4.80;;
11139;SDS011;5624;49.388;11.350;2023-02-18T03:56:19;6.50;;;5.53;;
11139;SDS011;5624;49.388;11.350;2023-02-18T03:58:44;6.30;;;4.80;;
11139;SDS011;5624;49.388;11.350;2023-02-18T04:01:10;7.90;;;5.47;;
11139;SDS011;5624;49.388;11.350;2023-02-18T04:03:36;8.90;;;6.17;;
11139;SDS011;5624;49.388;11.350;2023-02-18T04:06:01;7.40;;;6.03;;
11139;SDS011;5624;49.388;11.350;2023-02-18T04:08:27;6.67;;;5.00;;
11139;SDS011;5624;49.388;11.350;2023-02-18T04:10:53;6.40;;;5.53;;
11139;SDS011;5624;49.388;11.350;2023-02-18T04:13:18;7.63;;;5.43;;
11139;SDS011;5624;49.388;11.350;2023-02-18T04:15:44;6.87;;;5.33;;
11139;SDS011;5624;49.388;11.350;2023-02-18T04:18:12;8.00;;;4.83;;
11139;SDS011;5624;49.388;11.350;2023-02-18T04:20:38;7.23;;;5.33;;
11139;SDS011;5624;49.388;11.350;2023-02-18T04:23:03;6.47;;;4.50;;
11139;SDS011;5624;49.388;11.350;2023-02-18T04:25:29;7.23;;;4.73;;
11139;SDS011;5624;49.388;11.350;2023-02-18T04:27:55;6.33;;;4.80;;
11139;SDS011;5624;49.388;11.350;2023-02-18T04:30:21;6.43;;;4.97;;
11139;SDS011;5624;49.388;11.350;2023-02-18T04:32:47;6.93;;;4.90;;
11139;SDS011;5624;49.388;11.350;2023-02-18T04:35:12;7.73;;;5.07;;
11139;SDS011;5624;49.388;11.350;2023-02-18T04:37:38;6.00;;;5.13;;
11139;SDS011;5624;49.388;11.350;2023-02-18T04:40:04;6.47;;;5.40;;
11139;SDS011;5624;49.388;11.350;2023-02-18T04:42:30;7.63;;;6.13;;
11139;SDS011;5624;49.388;11.350;2023-02-18T04:44:55;7.60;;;6.23;;
11139;SDS011;5624;49.388;11.350;2023-02-18T04:47:21;8.97;;;6.30;;
11139;SDS011;5624;49.388;11.350;2023-02-18T04:49:47;6.97;;;5.80;;
11139;SDS011;5624;49.388;11.350;2023-02-18T04:52:12;9.50;;;7.03;;
11139;SDS011;5624;49.388;11.350;2023-02-18T04:54:38;8.17;;;6.13;;
11139;SDS011;5624;49.388;11.350;2023-02-18T04:57:03;9.33;;;6.10;;
11139;SDS011;5624;49.388;11.350;2023-02-18T04:59:29;8.77;;;7.27;;
11139;SDS011;5624;49.388;11.350;2023-02-18T05:01:55;8.60;;;6.83;;
11139;SDS011;5624;49.388;11.350;2023-02-18T05:04:21;9.33;;;6.50;;
11139;SDS011;5624;49.388;11.350;2023-02-18T05:06:46;9.33;;;7.17;;
11139;SDS011;5624;49.388;11.350;2023-02-18T05:09:12;8.20;;;7.07;;
11139;SDS011;5624;49.388;11.350;2023-02-18T05:11:38;7.93;;;6.40;;
11139;SDS011;5624;49.388;11.350;2023-02-18T05:14:04;8.87;;;7.17;;
11139;SDS011;5624;49.388;11.350;2023-02-18T05:16:30;7.50;;;5.93;;
11139;SDS011;5624;49.388;11.350;2023-02-18T05:18:56;8.60;;;6.03;;
11139;SDS011;5624;49.388;11.350;2023-02-18T05:21:21;8.93;;;7.10;;
11139;SDS011;5624;49.388;11.350;2023-02-18T05:23:47;8.83;;;6.90;;
11139;SDS011;5624;49.388;11.350;2023-02-18T05:26:12;8.47;;;7.47;;
11139;SDS011;5624;49.388;11.350;2023-02-18T05:28:38;8.77;;;7.13;;
11139;SDS011;5624;49.388;11.350;2023-02-18T05:31:04;9.27;;;7.30;;
11139;SDS011;5624;49.388;11.350;2023-02-18T05:33:29;8.50;;;6.90;;
11139;SDS011;5624;49.388;11.350;2023-02-18T05:35:55;8.40;;;6.07;;
11139;SDS011;5624;49.388;11.350;2023-02-18T05:38:20;8.50;;;6.97;;
11139;SDS011;5624;49.388;11.350;2023-02-18T05:40:46;8.20;;;6.77;;
11139;SDS011;5624;49.388;11.350;2023-02-18T05:43:12;10.20;;;7.00;;
11139;SDS011;5624;49.388;11.350;2023-02-18T05:45:37;9.03;;;7.20;;
11139;SDS011;5624;49.388;11.350;2023-02-18T05:48:03;7.83;;;6.23;;
11139;SDS011;5624;49.388;11.350;2023-02-18T05:50:29;8.37;;;6.73;;
11139;SDS011;5624;49.388;11.350;2023-02-18T05:52:55;9.07;;;7.20;;
11139;SDS011;5624;49.388;11.350;2023-02-18T05:55:21;8.03;;;6.83;;
11139;SDS011;5624;49.388;11.350;2023-02-18T05:57:48;8.57;;;6.90;;
11139;SDS011;5624;49.388;11.350;2023-02-18T06:00:14;9.03;;;6.87;;
11139;SDS011;5624;49.388;11.350;2023-02-18T06:02:39;8.83;;;6.10;;
11139;SDS011;5624;49.388;11.350;2023-02-18T06:05:05;8.17;;;6.70;;
11139;SDS011;5624;49.388;11.350;2023-02-18T06:07:31;9.77;;;6.53;;
11139;SDS011;5624;49.388;11.350;2023-02-18T06:09:57;9.50;;;6.80;;
11139;SDS011;5624;49.388;11.350;2023-02-18T06:12:22;9.10;;;7.17;;
11139;SDS011;5624;49.388;11.350;2023-02-18T06:14:48;7.63;;;6.03;;
11139;SDS011;5624;49.388;11.350;2023-02-18T06:17:14;9.57;;;7.67;;
11139;SDS011;5624;49.388;11.350;2023-02-18T06:19:40;10.20;;;7.30;;
11139;SDS011;5624;49.388;11.350;2023-02-18T06:22:05;11.07;;;7.43;;
11139;SDS011;5624;49.388;11.350;2023-02-18T06:24:31;10.03;;;7.30;;
11139;SDS011;5624;49.388;11.350;2023-02-18T06:26:57;12.40;;;8.40;;
11139;SDS011;5624;49.388;11.350;2023-02-18T06:29:23;11.37;;;7.23;;
11139;SDS011;5624;49.388;11.350;2023-02-18T06:31:49;9.17;;;7.27;;
11139;SDS011;5624;49.388;11.350;2023-02-18T06:34:15;10.97;;;8.20;;
11139;SDS011;5624;49.388;11.350;2023-02-18T06:36:40;10.60;;;7.80;;
11139;SDS011;5624;49.388;11.350;2023-02-18T06:39:06;11.67;;;7.70;;
11139;SDS011;5624;49.388;11.350;2023-02-18T06:41:32;9.97;;;8.43;;
11139;SDS011;5624;49.388;11.350;2023-02-18T06:43:58;9.03;;;7.07;;
11139;SDS011;5624;49.388;11.350;2023-02-18T06:46:23;10.43;;;7.80;;
11139;SDS011;5624;49.388;11.350;2023-02-18T06:48:49;10.90;;;8.13;;
11139;SDS011;5624;49.388;11.350;2023-02-18T06:51:15;10.80;;;8.07;;
11139;SDS011;5624;49.388;11.350;2023-02-18T06:53:41;11.97;;;8.43;;
11139;SDS011;5624;49.388;11.350;2023-02-18T06:56:08;11.07;;;8.37;;
11139;SDS011;5624;49.388;11.350;2023-02-18T06:58:33;9.53;;;7.93;;
11139;SDS011;5624;49.388;11.350;2023-02-18T07:00:59;12.27;;;7.57;;
11139;SDS011;5624;49.388;11.350;2023-02-18T07:03:25;10.77;;;7.77;;
11139;SDS011;5624;49.388;11.350;2023-02-18T07:05:51;9.53;;;8.00;;
11139;SDS011;5624;49.388;11.350;2023-02-18T07:08:17;12.33;;;10.77;;
11139;SDS011;5624;49.388;11.350;2023-02-18T07:10:42;12.47;;;10.37;;
11139;SDS011;5624;49.388;11.350;2023-02-18T07:13:08;10.90;;;8.70;;
11139;SDS011;5624;49.388;11.350;2023-02-18T07:15:34;11.00;;;9.40;;
11139;SDS011;5624;49.388;11.350;2023-02-18T07:17:59;15.63;;;12.57;;
11139;SDS011;5624;49.388;11.350;2023-02-18T07:20:25;23.67;;;18.53;;
11139;SDS011;5624;49.388;11.350;2023-02-18T07:22:51;15.57;;;12.50;;
11139;SDS011;5624;49.388;11.350;2023-02-18T07:25:17;15.23;;;12.77;;
11139;SDS011;5624;49.388;11.350;2023-02-18T07:27:42;10.30;;;8.50;;
11139;SDS011;5624;49.388;11.350;2023-02-18T07:30:08;11.43;;;9.50;;
11139;SDS011;5624;49.388;11.350;2023-02-18T07:32:34;15.17;;;11.17;;
11139;SDS011;5624;49.388;11.350;2023-02-18T07:34:59;12.90;;;10.20;;
11139;SDS011;5624;49.388;11.350;2023-02-18T07:37:25;13.00;;;10.43;;
11139;SDS011;5624;49.388;11.350;2023-02-18T07:39:51;12.13;;;9.63;;
11139;SDS011;5624;49.388;11.350;2023-02-18T07:42:16;13.20;;;10.10;;
11139;SDS011;5624;49.388;11.350;2023-02-18T07:44:42;12.30;;;9.97;;
11139;SDS011;5624;49.388;11.350;2023-02-18T07:47:09;12.67;;;9.80;;
11139;SDS011;5624;49.388;11.350;2023-02-18T07:49:38;12.90;;;9.70;;
11139;SDS011;5624;49.388;11.350;2023-02-18T07:52:04;15.57;;;12.00;;
11139;SDS011;5624;49.388;11.350;2023-02-18T07:54:30;14.50;;;11.43;;
11139;SDS011;5624;49.388;11.350;2023-02-18T07:56:55;12.87;;;10.53;;
11139;SDS011;5624;49.388;11.350;2023-02-18T07:59:21;12.40;;;9.70;;
11139;SDS011;5624;49.388;11.350;2023-02-18T08:01:46;10.90;;;9.60;;
11139;SDS011;5624;49.388;11.350;2023-02-18T08:04:12;12.60;;;9.13;;
11139;SDS011;5624;49.388;11.350;2023-02-18T08:06:39;12.70;;;10.63;;
11139;SDS011;5624;49.388;11.350;2023-02-18T08:09:13;11.83;;;9.47;;
11139;SDS011;5624;49.388;11.350;2023-02-18T08:11:39;14.13;;;10.13;;
11139;SDS011;5624;49.388;11.350;2023-02-18T08:14:05;13.17;;;10.00;;
11139;SDS011;5624;49.388;11.350;2023-02-18T08:16:31;12.87;;;9.40;;
11139;SDS011;5624;49.388;11.350;2023-02-18T08:18:57;11.20;;;9.40;;
11139;SDS011;5624;49.388;11.350;2023-02-18T08:21:23;13.67;;;9.97;;
11139;SDS011;5624;49.388;11.350;2023-02-18T08:23:49;12.57;;;10.43;;
11139;SDS011;5624;49.388;11.350;2023-02-18T08:26:15;11.57;;;9.13;;
11139;SDS011;5624;49.388;11.350;2023-02-18T08:28:42;11.73;;;9.00;;
11139;SDS011;5624;49.388;11.350;2023-02-18T08:31:19;9.77;;;8.33;;
11139;SDS011;5624;49.388;11.350;2023-02-18T08:33:47;11.53;;;9.10;;
11139;SDS011;5624;49.388;11.350;2023-02-18T08:36:13;11.80;;;8.50;;
11139;SDS011;5624;49.388;11.350;2023-02-18T08:38:39;10.00;;;7.73;;
11139;SDS011;5624;49.388;11.350;2023-02-18T08:41:06;9.03;;;7.40;;
11139;SDS011;5624;49.388;11.350;2023-02-18T08:43:32;9.53;;;7.03;;
11139;SDS011;5624;49.388;11.350;2023-02-18T08:45:58;8.07;;;7.03;;
11139;SDS011;5624;49.388;11.350;2023-02-18T08:48:24;7.17;;;6.20;;
11139;SDS011;5624;49.388;11.350;2023-02-18T08:50:50;7.40;;;6.23;;
11139;SDS011;5624;49.388;11.350;2023-02-18T08:53:16;8.20;;;5.90;;
11139;SDS011;5624;49.388;11.350;2023-02-18T08:55:42;7.83;;;6.10;;
11139;SDS011;5624;49.388;11.350;2023-02-18T08:58:08;8.00;;;6.57;;
11139;SDS011;5624;49.388;11.350;2023-02-18T09:00:35;6.40;;;5.53;;
11139;SDS011;5624;49.388;11.350;2023-02-18T09:03:02;6.10;;;5.50;;
11139;SDS011;5624;49.388;11.350;2023-02-18T09:05:28;5.63;;;5.00;;
11139;SDS011;5624;49.388;11.350;2023-02-18T09:07:54;7.07;;;5.47;;
11139;SDS011;5624;49.388;11.350;2023-02-18T09:10:20;8.03;;;5.20;;
11139;SDS011;5624;49.388;11.350;2023-02-18T09:12:46;5.67;;;4.67;;
11139;SDS011;5624;49.388;11.350;2023-02-18T09:15:11;6.50;;;5.17;;
11139;SDS011;5624;49.388;11.350;2023-02-18T09:17:37;5.20;;;4.70;;
11139;SDS011;5624;49.388;11.350;2023-02-18T09:20:03;4.97;;;4.00;;
11139;SDS011;5624;49.388;11.350;2023-02-18T09:22:29;5.10;;;4.33;;
11139;SDS011;5624;49.388;11.350;2023-02-18T09:24:56;4.87;;;4.13;;
11139;SDS011;5624;49.388;11.350;2023-02-18T09:27:22;4.77;;;3.87;;
11139;SDS011;5624;49.388;11.350;2023-02-18T09:29:48;5.23;;;3.93;;
11139;SDS011;5624;49.388;11.350;2023-02-18T09:32:15;4.87;;;3.67;;
11139;SDS011;5624;49.388;11.350;2023-02-18T09:34:42;5.80;;;3.93;;
11139;SDS011;5624;49.388;11.350;2023-02-18T09:37:08;4.50;;;3.20;;
11139;SDS011;5624;49.388;11.350;2023-02-18T09:39:34;6.07;;;4.93;;
11139;SDS011;5624;49.388;11.350;2023-02-18T09:42:02;7.27;;;6.53;;
11139;SDS011;5624;49.388;11.350;2023-02-18T09:44:34;6.67;;;6.07;;
11139;SDS011;5624;49.388;11.350;2023-02-18T09:47:12;9.47;;;8.00;;
11139;SDS011;5624;49.388;11.350;2023-02-18T09:49:48;8.87;;;6.77;;
11139;SDS011;5624;49.388;11.350;2023-02-18T09:52:23;7.37;;;6.23;;
11139;SDS011;5624;49.388;11.350;2023-02-18T09:54:54;4.60;;;3.60;;
11139;SDS011;5624;49.388;11.350;2023-02-18T10:00:14;14.67;;;12.97;;
11139;SDS011;5624;49.388;11.350;2023-02-18T10:02:49;8.93;;;7.07;;
11139;SDS011;5624;49.388;11.350;2023-02-18T10:05:19;10.17;;;7.17;;
11139;SDS011;5624;49.388;11.350;2023-02-18T10:07:46;25.87;;;23.07;;
11139;SDS011;5624;49.388;11.350;2023-02-18T10:10:24;8.47;;;7.17;;
11139;SDS011;5624;49.388;11.350;2023-02-18T10:12:54;8.93;;;6.90;;
11139;SDS011;5624;49.388;11.350;2023-02-18T10:15:22;5.43;;;4.43;;
11139;SDS011;5624;49.388;11.350;2023-02-18T10:17:51;6.13;;;3.60;;
11139;SDS011;5624;49.388;11.350;2023-02-18T10:20:19;10.67;;;9.57;;
11139;SDS011;5624;49.388;11.350;2023-02-18T10:22:50;8.03;;;4.87;;
11139;SDS011;5624;49.388;11.350;2023-02-18T10:25:18;7.60;;;6.37;;
11139;SDS011;5624;49.388;11.350;2023-02-18T10:27:46;4.67;;;3.53;;
11139;SDS011;5624;49.388;11.350;2023-02-18T10:32:39;20.70;;;18.17;;
11139;SDS011;5624;49.388;11.350;2023-02-18T10:35:54;19.27;;;16.60;;
11139;SDS011;5624;49.388;11.350;2023-02-18T10:51:25;3.70;;;3.10;;
11139;SDS011;5624;49.388;11.350;2023-02-18T10:53:54;4.23;;;3.83;;
11139;SDS011;5624;49.388;11.350;2023-02-18T10:59:13;3.90;;;2.83;;
11139;SDS011;5624;49.388;11.350;2023-02-18T11:01:43;4.57;;;3.30;;
11139;SDS011;5624;49.388;11.350;2023-02-18T11:04:14;5.07;;;3.07;;
11139;SDS011;5624;49.388;11.350;2023-02-18T11:06:41;4.23;;;3.30;;
11139;SDS011;5624;49.388;11.350;2023-02-18T11:09:33;4.20;;;3.03;;
11139;SDS011;5624;49.388;11.350;2023-02-18T11:12:13;4.73;;;2.93;;
11139;SDS011;5624;49.388;11.350;2023-02-18T11:14:47;3.30;;;2.73;;
11139;SDS011;5624;49.388;11.350;2023-02-18T11:17:32;4.80;;;3.20;;
11139;SDS011;5624;49.388;11.350;2023-02-18T11:19:59;4.67;;;3.07;;
11139;SDS011;5624;49.388;11.350;2023-02-18T11:22:28;3.63;;;3.07;;
11139;SDS011;5624;49.388;11.350;2023-02-18T11:25:01;4.70;;;3.17;;
11139;SDS011;5624;49.388;11.350;2023-02-18T11:27:41;3.70;;;3.10;;
11139;SDS011;5624;49.388;11.350;2023-02-18T11:32:44;3.63;;;2.90;;
11139;SDS011;5624;49.388;11.350;2023-02-18T11:35:20;4.73;;;3.13;;
11139;SDS011;5624;49.388;11.350;2023-02-18T11:37:48;4.43;;;3.40;;
11139;SDS011;5624;49.388;11.350;2023-02-18T11:40:24;5.77;;;3.30;;
11139;SDS011;5624;49.388;11.350;2023-02-18T11:43:14;4.20;;;3.50;;
11139;SDS011;5624;49.388;11.350;2023-02-18T11:45:41;4.20;;;3.17;;
11139;SDS011;5624;49.388;11.350;2023-02-18T11:48:15;4.17;;;3.17;;
11139;SDS011;5624;49.388;11.350;2023-02-18T11:50:43;4.27;;;3.23;;
11139;SDS011;5624;49.388;11.350;2023-02-18T11:53:27;3.90;;;3.37;;
11139;SDS011;5624;49.388;11.350;2023-02-18T11:55:59;5.33;;;3.20;;
11139;SDS011;5624;49.388;11.350;2023-02-18T11:58:26;3.90;;;3.03;;
11139;SDS011;5624;49.388;11.350;2023-02-18T12:00:58;3.43;;;2.70;;
11139;SDS011;5624;49.388;11.350;2023-02-18T12:06:21;3.23;;;2.83;;
11139;SDS011;5624;49.388;11.350;2023-02-18T12:08:56;3.53;;;2.70;;
11139;SDS011;5624;49.388;11.350;2023-02-18T12:11:50;5.97;;;3.20;;
11139;SDS011;5624;49.388;11.350;2023-02-18T12:14:20;3.30;;;2.60;;
11139;SDS011;5624;49.388;11.350;2023-02-18T12:22:42;2.87;;;2.40;;
11139;SDS011;5624;49.388;11.350;2023-02-18T12:36:37;7.07;;;4.53;;
11139;SDS011;5624;49.388;11.350;2023-02-18T12:39:30;8.40;;;7.00;;
11139;SDS011;5624;49.388;11.350;2023-02-18T12:53:25;4.27;;;2.93;;
11139;SDS011;5624;49.388;11.350;2023-02-18T13:01:13;4.13;;;2.43;;
11139;SDS011;5624;49.388;11.350;2023-02-18T13:08:57;3.50;;;1.97;;
11139;SDS011;5624;49.388;11.350;2023-02-18T13:14:56;2.53;;;1.90;;
11139;SDS011;5624;49.388;11.350;2023-02-18T13:17:41;2.70;;;1.73;;
11139;SDS011;5624;49.388;11.350;2023-02-18T13:20:22;3.07;;;1.77;;
11139;SDS011;5624;49.388;11.350;2023-02-18T13:22:55;2.00;;;1.80;;
11139;SDS011;5624;49.388;11.350;2023-02-18T13:25:21;3.63;;;2.03;;
11139;SDS011;5624;49.388;11.350;2023-02-18T13:28:06;4.00;;;2.67;;
11139;SDS011;5624;49.388;11.350;2023-02-18T13:30:53;4.37;;;2.30;;
11139;SDS011;5624;49.388;11.350;2023-02-18T13:39:30;4.30;;;2.87;;
11139;SDS011;5624;49.388;11.350;2023-02-18T13:52:58;3.37;;;2.57;;
11139;SDS011;5624;49.388;11.350;2023-02-18T13:55:33;4.17;;;2.90;;
11139;SDS011;5624;49.388;11.350;2023-02-18T13:58:18;4.77;;;2.83;;
11139;SDS011;5624;49.388;11.350;2023-02-18T14:00:53;2.90;;;2.40;;
11139;SDS011;5624;49.388;11.350;2023-02-18T14:03:30;3.10;;;2.50;;
11139;SDS011;5624;49.388;11.350;2023-02-18T14:06:20;2.47;;;2.23;;
11139;SDS011;5624;49.388;11.350;2023-02-18T14:08:48;3.97;;;2.43;;
11139;SDS011;5624;49.388;11.350;2023-02-18T14:13:48;6.37;;;2.90;;
11139;SDS011;5624;49.388;11.350;2023-02-18T14:16:18;4.53;;;3.57;;
11139;SDS011;5624;49.388;11.350;2023-02-18T14:26:08;7.53;;;5.43;;
11139;SDS011;5624;49.388;11.350;2023-02-18T14:28:39;26.87;;;24.17;;
11139;SDS011;5624;49.388;11.350;2023-02-18T14:33:41;3.33;;;2.60;;
11139;SDS011;5624;49.388;11.350;2023-02-18T14:41:38;3.23;;;2.60;;
11139;SDS011;5624;49.388;11.350;2023-02-18T14:49:54;4.10;;;2.70;;
11139;SDS011;5624;49.388;11.350;2023-02-18T14:54:59;3.37;;;2.40;;
11139;SDS011;5624;49.388;11.350;2023-02-18T14:57:50;3.27;;;2.67;;
11139;SDS011;5624;49.388;11.350;2023-02-18T15:00:15;5.40;;;2.53;;
11139;SDS011;5624;49.388;11.350;2023-02-18T15:02:43;2.93;;;2.30;;
11139;SDS011;5624;49.388;11.350;2023-02-18T15:05:15;3.33;;;2.20;;
11139;SDS011;5624;49.388;11.350;2023-02-18T15:07:56;3.13;;;2.40;;
11139;SDS011;5624;49.388;11.350;2023-02-18T15:13:34;5.90;;;2.70;;
11139;SDS011;5624;49.388;11.350;2023-02-18T15:16:03;3.97;;;2.80;;
11139;SDS011;5624;49.388;11.350;2023-02-18T15:18:36;4.00;;;3.00;;
11139;SDS011;5624;49.388;11.350;2023-02-18T15:21:05;5.33;;;2.70;;
11139;SDS011;5624;49.388;11.350;2023-02-18T15:23:37;3.23;;;2.63;;
11139;SDS011;5624;49.388;11.350;2023-02-18T15:26:05;3.17;;;2.60;;
11139;SDS011;5624;49.388;11.350;2023-02-18T15:28:38;4.20;;;3.33;;
11139;SDS011;5624;49.388;11.350;2023-02-18T15:31:15;5.10;;;4.17;;
11139;SDS011;5624;49.388;11.350;2023-02-18T15:33:42;4.33;;;3.13;;
11139;SDS011;5624;49.388;11.350;2023-02-18T15:36:08;3.20;;;2.83;;
11139;SDS011;5624;49.388;11.350;2023-02-18T15:38:38;4.27;;;3.00;;
11139;SDS011;5624;49.388;11.350;2023-02-18T15:41:09;4.37;;;3.07;;
11139;SDS011;5624;49.388;11.350;2023-02-18T15:43:38;5.60;;;3.40;;
11139;SDS011;5624;49.388;11.350;2023-02-18T15:46:15;5.07;;;4.00;;
11139;SDS011;5624;49.388;11.350;2023-02-18T15:48:44;4.50;;;3.00;;
11139;SDS011;5624;49.388;11.350;2023-02-18T15:51:12;3.63;;;2.80;;
11139;SDS011;5624;49.388;11.350;2023-02-18T15:53:41;4.33;;;2.97;;
11139;SDS011;5624;49.388;11.350;2023-02-18T15:56:09;5.17;;;3.80;;
11139;SDS011;5624;49.388;11.350;2023-02-18T15:58:41;4.40;;;3.30;;
11139;SDS011;5624;49.388;11.350;2023-02-18T16:01:22;5.60;;;3.40;;
11139;SDS011;5624;49.388;11.350;2023-02-18T16:03:50;4.50;;;3.27;;
11139;SDS011;5624;49.388;11.350;2023-02-18T16:11:43;4.97;;;3.60;;
11139;SDS011;5624;49.388;11.350;2023-02-18T16:19:32;5.07;;;3.70;;
11139;SDS011;5624;49.388;11.350;2023-02-18T16:22:02;5.47;;;4.00;;
11139;SDS011;5624;49.388;11.350;2023-02-18T16:24:37;5.40;;;4.07;;
11139;SDS011;5624;49.388;11.350;2023-02-18T16:27:05;4.50;;;3.40;;
11139;SDS011;5624;49.388;11.350;2023-02-18T16:29:41;4.43;;;3.40;;
11139;SDS011;5624;49.388;11.350;2023-02-18T16:32:07;4.90;;;3.90;;
11139;SDS011;5624;49.388;11.350;2023-02-18T16:34:33;5.63;;;4.03;;
11139;SDS011;5624;49.388;11.350;2023-02-18T16:36:59;5.20;;;4.23;;
11139;SDS011;5624;49.388;11.350;2023-02-18T16:39:44;6.40;;;4.20;;
11139;SDS011;5624;49.388;11.350;2023-02-18T16:42:10;5.37;;;4.23;;
11139;SDS011;5624;49.388;11.350;2023-02-18T16:44:37;6.20;;;4.57;;
11139;SDS011;5624;49.388;11.350;2023-02-18T16:47:03;7.57;;;4.50;;
11139;SDS011;5624;49.388;11.350;2023-02-18T16:49:30;5.73;;;4.80;;
11139;SDS011;5624;49.388;11.350;2023-02-18T16:52:05;6.83;;;4.60;;
11139;SDS011;5624;49.388;11.350;2023-02-18T16:54:32;7.63;;;4.80;;
11139;SDS011;5624;49.388;11.350;2023-02-18T16:56:58;7.50;;;4.43;;
11139;SDS011;5624;49.388;11.350;2023-02-18T16:59:24;6.13;;;4.80;;
11139;SDS011;5624;49.388;11.350;2023-02-18T17:01:50;6.60;;;4.93;;
11139;SDS011;5624;49.388;11.350;2023-02-18T17:04:16;6.43;;;4.80;;
11139;SDS011;5624;49.388;11.350;2023-02-18T17:06:44;8.80;;;6.00;;
11139;SDS011;5624;49.388;11.350;2023-02-18T17:09:22;6.47;;;4.97;;
11139;SDS011;5624;49.388;11.350;2023-02-18T17:11:51;7.00;;;5.20;;
11139;SDS011;5624;49.388;11.350;2023-02-18T17:14:19;6.87;;;5.13;;
11139;SDS011;5624;49.388;11.350;2023-02-18T17:16:47;6.70;;;5.13;;
11139;SDS011;5624;49.388;11.350;2023-02-18T17:19:14;11.27;;;6.93;;
11139;SDS011;5624;49.388;11.350;2023-02-18T17:21:40;7.27;;;5.03;;
11139;SDS011;5624;49.388;11.350;2023-02-18T17:24:11;9.10;;;5.63;;
11139;SDS011;5624;49.388;11.350;2023-02-18T17:26:37;7.37;;;5.27;;
11139;SDS011;5624;49.388;11.350;2023-02-18T17:29:03;8.70;;;5.90;;
11139;SDS011;5624;49.388;11.350;2023-02-18T17:31:36;7.77;;;5.93;;
11139;SDS011;5624;49.388;11.350;2023-02-18T17:34:06;8.30;;;5.57;;
11139;SDS011;5624;49.388;11.350;2023-02-18T17:36:33;9.57;;;7.30;;
11139;SDS011;5624;49.388;11.350;2023-02-18T17:38:59;9.07;;;6.83;;
11139;SDS011;5624;49.388;11.350;2023-02-18T17:41:25;9.50;;;7.07;;
11139;SDS011;5624;49.388;11.350;2023-02-18T17:43:50;10.70;;;8.40;;
11139;SDS011;5624;49.388;11.350;2023-02-18T17:46:17;9.17;;;7.20;;
11139;SDS011;5624;49.388;11.350;2023-02-18T17:48:43;7.97;;;6.40;;
11139;SDS011;5624;49.388;11.350;2023-02-18T17:51:21;9.03;;;5.97;;
11139;SDS011;5624;49.388;11.350;2023-02-18T17:53:48;8.27;;;5.83;;
11139;SDS011;5624;49.388;11.350;2023-02-18T17:56:14;9.40;;;6.70;;